Observation data for Plains on 02/14/2018      Previous  Date  Next       Current Mesonet Observations  Soil Data  Daily Summary Page  Observations in Plain Language
KPPS 140600Z 20005KT 08/M02 A3025 RMK A01 T00761015  RH  053%=      5-min Rain = 0
KPPS 140605Z 21005KT 08/M02 A3025 RMK A01 T00771017  RH  052%=      5-min Rain = 0
KPPS 140610Z 21005KT 08/M02 A3025 RMK A01 T00751017  RH  053%=      5-min Rain = 0
KPPS 140615Z 20005KT 08/M02 A3025 RMK A01 T00771015  RH  053%=      5-min Rain = 0
KPPS 140620Z 20005KT 08/M02 A3024 RMK A01 T00791015  RH  052%=      5-min Rain = 0
KPPS 140625Z 20005KT 08/M02 A3024 RMK A01 T00791015  RH  052%=      5-min Rain = 0
KPPS 140630Z 18005KT 07/M02 A3024 RMK A01 T00731019  RH  052%=      5-min Rain = 0
KPPS 140635Z 17004KT 06/M03 A3024 RMK A01 T00591027  RH  054%=      5-min Rain = 0
KPPS 140640Z 17004KT 06/M03 A3024 RMK A01 T00561026  RH  056%=      5-min Rain = 0
KPPS 140645Z 17004KT 06/M02 A3024 RMK A01 T00591022  RH  056%=      5-min Rain = 0
KPPS 140650Z 17003KT 07/M02 A3024 RMK A01 T00651020  RH  055%=      5-min Rain = 0
KPPS 140655Z 18004KT 07/M02 A3024 RMK A01 T00681020  RH  054%=      5-min Rain = 0
KPPS 140700Z 19004KT 07/M02 A3024 RMK A01 T00691020  RH  054%=      5-min Rain = 0
KPPS 140705Z 19004KT 07/M02 A3024 RMK A01 T00681021  RH  053%=      5-min Rain = 0
KPPS 140710Z 18004KT 07/M02 A3024 RMK A01 T00671022  RH  053%=      5-min Rain = 0
KPPS 140715Z 18004KT 07/M02 A3023 RMK A01 T00661023  RH  054%=      5-min Rain = 0
KPPS 140720Z 18004KT 06/M02 A3023 RMK A01 T00641024  RH  054%=      5-min Rain = 0
KPPS 140725Z 19003KT 06/M02 A3023 RMK A01 T00641024  RH  054%=      5-min Rain = 0
KPPS 140730Z 20003KT 07/M02 A3023 RMK A01 T00651023  RH  054%=      5-min Rain = 0
KPPS 140735Z 20004KT 07/M02 A3023 RMK A01 T00671023  RH  053%=      5-min Rain = 0
KPPS 140740Z 21004KT 07/M02 A3023 RMK A01 T00681023  RH  053%=      5-min Rain = 0
KPPS 140745Z 23004KT 07/M02 A3023 RMK A01 T00681024  RH  052%=      5-min Rain = 0
KPPS 140750Z 23004KT 07/M03 A3023 RMK A01 T00661025  RH  053%=      5-min Rain = 0
KPPS 140755Z 23004KT 06/M03 A3023 RMK A01 T00631027  RH  053%=      5-min Rain = 0
KPPS 140800Z 23004KT 06/M03 A3023 RMK A01 T00621028  RH  053%=      5-min Rain = 0
KPPS 140805Z 23005KT 06/M03 A3023 RMK A01 T00621027  RH  053%=      5-min Rain = 0
KPPS 140810Z 24005KT 06/M03 A3023 RMK A01 T00621028  RH  053%=      5-min Rain = 0
KPPS 140815Z 24006KT 07/M03 A3022 RMK A01 T00661026  RH  052%=      5-min Rain = 0
KPPS 140820Z 24006KT 07/M03 A3022 RMK A01 T00671028  RH  051%=      5-min Rain = 0
KPPS 140825Z 24006KT 07/M03 A3022 RMK A01 T00661028  RH  051%=      5-min Rain = 0
KPPS 140830Z 24005KT 07/M03 A3022 RMK A01 T00651028  RH  052%=      5-min Rain = 0
KPPS 140835Z 21006KT 07/M03 A3022 RMK A01 T00651028  RH  052%=      5-min Rain = 0
KPPS 140840Z 23006KT 06/M03 A3022 RMK A01 T00641029  RH  052%=      5-min Rain = 0
KPPS 140845Z 20006KT 06/M03 A3022 RMK A01 T00621030  RH  052%=      5-min Rain = 0
KPPS 140850Z 21005KT 06/M03 A3021 RMK A01 T00571031  RH  053%=      5-min Rain = 0
KPPS 140855Z 20006KT 06/M03 A3022 RMK A01 T00601030  RH  053%=      5-min Rain = 0
KPPS 140900Z 21006KT 06/M03 A3022 RMK A01 T00611030  RH  052%=      5-min Rain = 0
KPPS 140905Z 22006KT 06/M03 A3022 RMK A01 T00591031  RH  053%=      5-min Rain = 0
KPPS 140910Z 22005KT 06/M03 A3022 RMK A01 T00551034  RH  053%=      5-min Rain = 0
KPPS 140915Z 22006KT 05/M03 A3022 RMK A01 T00511034  RH  054%=      5-min Rain = 0
KPPS 140920Z 22007KT 06/M03 A3021 RMK A01 T00551030  RH  055%=      5-min Rain = 0
KPPS 140925Z 22007KT 06/M03 A3021 RMK A01 T00611029  RH  053%=      5-min Rain = 0
KPPS 140930Z 22006KT 06/M03 A3021 RMK A01 T00621029  RH  052%=      5-min Rain = 0
KPPS 140935Z 22006KT 06/M03 A302 RMK A01 T00601030  RH  053%=      5-min Rain = 0
KPPS 140940Z 23005KT 06/M03 A302 RMK A01 T00561032  RH  053%=      5-min Rain = 0
KPPS 140945Z 23005KT 06/M03 A302 RMK A01 T00551031  RH  054%=      5-min Rain = 0
KPPS 140950Z 23005KT 06/M03 A302 RMK A01 T00571030  RH  054%=      5-min Rain = 0
KPPS 140955Z 20005KT 06/M03 A302 RMK A01 T00591029  RH  053%=      5-min Rain = 0
KPPS 141000Z 20005KT 06/M03 A302 RMK A01 T00611028  RH  053%=      5-min Rain = 0
KPPS 141005Z 19004KT 06/M03 A3021 RMK A01 T00551033  RH  054%=      5-min Rain = 0
KPPS 141010Z 19004KT 05/M03 A302 RMK A01 T00481034  RH  055%=      5-min Rain = 0
KPPS 141015Z 21005KT 06/M03 A3021 RMK A01 T00581027  RH  055%=      5-min Rain = 0
KPPS 141020Z 22006KT 06/M03 A3021 RMK A01 T00631027  RH  053%=      5-min Rain = 0
KPPS 141025Z 22005KT 06/M03 A3021 RMK A01 T00611028  RH  053%=      5-min Rain = 0
KPPS 141030Z 21005KT 06/M03 A3021 RMK A01 T00611027  RH  054%=      5-min Rain = 0
KPPS 141035Z 22005KT 06/M03 A3021 RMK A01 T00611028  RH  053%=      5-min Rain = 0
KPPS 141040Z 22003KT 06/M03 A3021 RMK A01 T00581030  RH  054%=      5-min Rain = 0
KPPS 141045Z 22003KT 06/M03 A3021 RMK A01 T00561030  RH  054%=      5-min Rain = 0
KPPS 141050Z 21003KT 06/M03 A3021 RMK A01 T00581028  RH  054%=      5-min Rain = 0
KPPS 141055Z 22004KT 06/M03 A3021 RMK A01 T00591028  RH  054%=      5-min Rain = 0
KPPS 141100Z 23005KT 06/M03 A3021 RMK A01 T00571029  RH  054%=      5-min Rain = 0
KPPS 141105Z 23005KT 06/M03 A3022 RMK A01 T00551031  RH  054%=      5-min Rain = 0
KPPS 141110Z 23006KT 06/M03 A3022 RMK A01 T00561029  RH  055%=      5-min Rain = 0
KPPS 141115Z 24006KT 06/M03 A3022 RMK A01 T00561031  RH  054%=      5-min Rain = 0
KPPS 141120Z 23005KT 05/M03 A3021 RMK A01 T00531031  RH  055%=      5-min Rain = 0
KPPS 141125Z 23006KT 05/M03 A3022 RMK A01 T00541032  RH  054%=      5-min Rain = 0
KPPS 141130Z 24006KT 05/M03 A3022 RMK A01 T00491034  RH  056%=      5-min Rain = 0
KPPS 141135Z 23006KT 05/M03 A3022 RMK A01 T00491031  RH  056%=      5-min Rain = 0
KPPS 141140Z 22006KT 05/M03 A3021 RMK A01 T00541030  RH  055%=      5-min Rain = 0
KPPS 141145Z 23006KT 05/M03 A3021 RMK A01 T00511032  RH  055%=      5-min Rain = 0
KPPS 141150Z 24005KT 05/M03 A3021 RMK A01 T00491032  RH  056%=      5-min Rain = 0
KPPS 141155Z 24005KT 05/M03 A3021 RMK A01 T00491031  RH  056%=      5-min Rain = 0
KPPS 141200Z 24004KT 05/M03 A302 RMK A01 T00541028  RH  056%=      5-min Rain = 0
KPPS 141205Z 23005KT 06/M03 A302 RMK A01 T00591027  RH  055%=      5-min Rain = 0
KPPS 141210Z 22004KT 06/M03 A302 RMK A01 T00581028  RH  054%=      5-min Rain = 0
KPPS 141215Z 24004KT 06/M03 A3021 RMK A01 T00591028  RH  054%=      5-min Rain = 0
KPPS 141220Z 25005KT 06/M03 A302 RMK A01 T00591028  RH  054%=      5-min Rain = 0
KPPS 141225Z 26005KT 06/M03 A3021 RMK A01 T00601028  RH  053%=      5-min Rain = 0
KPPS 141230Z 24005KT 06/M03 A3021 RMK A01 T00601028  RH  054%=      5-min Rain = 0
KPPS 141235Z 24006KT 07/M03 A3021 RMK A01 T00651026  RH  053%=      5-min Rain = 0
KPPS 141240Z 25005KT 06/M03 A302 RMK A01 T00631028  RH  052%=      5-min Rain = 0
KPPS 141245Z 25005KT 07/M03 A302 RMK A01 T00651027  RH  052%=      5-min Rain = 0
KPPS 141250Z 26005KT 07/M03 A302 RMK A01 T00681026  RH  051%=      5-min Rain = 0
KPPS 141255Z 26005KT 07/M03 A302 RMK A01 T00681028  RH  051%=      5-min Rain = 0
KPPS 141300Z 25005KT 07/M03 A302 RMK A01 T00661028  RH  051%=      5-min Rain = 0
KPPS 141305Z 23005KT 07/M03 A3021 RMK A01 T00681026  RH  051%=      5-min Rain = 0
KPPS 141310Z 21004KT 07/M03 A3021 RMK A01 T00671028  RH  051%=      5-min Rain = 0
KPPS 141315Z 20005KT 06/M03 A3021 RMK A01 T00621030  RH  052%=      5-min Rain = 0
KPPS 141320Z 19005KT 06/M03 A3021 RMK A01 T00601030  RH  053%=      5-min Rain = 0
KPPS 141325Z 20005KT 06/M03 A3021 RMK A01 T00611028  RH  053%=      5-min Rain = 0
KPPS 141330Z 19004KT 06/M03 A302 RMK A01 T00631029  RH  052%=      5-min Rain = 0
KPPS 141335Z 19005KT 06/M03 A302 RMK A01 T00611030  RH  052%=      5-min Rain = 0
KPPS 141340Z 20006KT 06/M03 A302 RMK A01 T00611029  RH  053%=      5-min Rain = 0
KPPS 141345Z 19005KT 06/M03 A302 RMK A01 T00631028  RH  052%=      5-min Rain = 0
KPPS 141350Z 19005KT 07/M03 A3021 RMK A01 T00651027  RH  052%=      5-min Rain = 0
KPPS 141355Z 20004KT 07/M03 A3021 RMK A01 T00651027  RH  052%=      5-min Rain = 0
KPPS 141400Z 21004KT 07/M03 A302 RMK A01 T00701025  RH  051%=      5-min Rain = 0
KPPS 141405Z 22005KT 07/M02 A302 RMK A01 T00741024  RH  050%=      5-min Rain = 0
KPPS 141410Z 21005KT 08/M02 A3021 RMK A01 T00751024  RH  050%=      5-min Rain = 0
KPPS 141415Z 21004KT 08/M02 A3021 RMK A01 T00761024  RH  050%=      5-min Rain = 0
KPPS 141420Z 21005KT 08/M02 A3021 RMK A01 T00761023  RH  050%=      5-min Rain = 0
KPPS 141425Z 21005KT 08/M02 A3021 RMK A01 T00771023  RH  050%=      5-min Rain = 0
KPPS 141430Z 21005KT 08/M02 A3021 RMK A01 T00801022  RH  049%=      5-min Rain = 0
KPPS 141435Z 20004KT 08/M02 A302 RMK A01 T00831022  RH  048%=      5-min Rain = 0
KPPS 141440Z 20004KT 09/M02 A302 RMK A01 T00881021  RH  047%=      5-min Rain = 0
KPPS 141445Z 20004KT 09/M02 A302 RMK A01 T00921020  RH  046%=      5-min Rain = 0
KPPS 141450Z 22004KT 10/M02 A302 RMK A01 T00951020  RH  045%=      5-min Rain = 0
KPPS 141455Z 23005KT 10/M02 A3021 RMK A01 T00971020  RH  044%=      5-min Rain = 0
KPPS 141500Z 22005KT 10/M02 A3021 RMK A01 T00981020  RH  044%=      5-min Rain = 0
KPPS 141505Z 22005KT 10/M02 A3021 RMK A01 T01001019  RH  044%=      5-min Rain = 0
KPPS 141510Z 22004KT 10/M02 A3021 RMK A01 T01041018  RH  043%=      5-min Rain = 0
KPPS 141515Z 23006KT 11/M02 A3022 RMK A01 T01091017  RH  042%=      5-min Rain = 0
KPPS 141520Z 23007KT 11/M02 A3022 RMK A01 T01121017  RH  041%=      5-min Rain = 0
KPPS 141525Z 23007KT 12/M02 A3022 RMK A01 T01151016  RH  040%=      5-min Rain = 0
KPPS 141530Z 22007KT 12/M02 A3022 RMK A01 T01191015  RH  040%=      5-min Rain = 0
KPPS 141535Z 22006KT 12/M01 A3022 RMK A01 T01211014  RH  039%=      5-min Rain = 0
KPPS 141540Z 22008KT 13/M01 A3022 RMK A01 T01251013  RH  039%=      5-min Rain = 0
KPPS 141545Z 21009G14KT 14/M01 A3022 RMK A01 T01351012  RH  037%=      5-min Rain = 0
KPPS 141550Z 21009G14KT 14/M01 A3022 RMK A01 T01431010  RH  035%=      5-min Rain = 0
KPPS 141555Z 21009G14KT 14/M01 A3021 RMK A01 T01441010  RH  035%=      5-min Rain = 0
KPPS 141600Z 20008KT 15/M01 A3021 RMK A01 T01501009  RH  034%=      5-min Rain = 0
KPPS 141605Z 21010KT 15/M01 A3021 RMK A01 T01521010  RH  033%=      5-min Rain = 0
KPPS 141610Z 21010G15KT 16/M01 A3021 RMK A01 T01581011  RH  032%=      5-min Rain = 0
KPPS 141615Z 21012KT 16/M01 A3021 RMK A01 T01621014  RH  030%=      5-min Rain = 0
KPPS 141620Z 21012G17KT 17/M02 A302 RMK A01 T01661017  RH  029%=      5-min Rain = 0
KPPS 141625Z 21011KT 17/M02 A302 RMK A01 T01711019  RH  028%=      5-min Rain = 0
KPPS 141630Z 20011KT 18/M02 A302 RMK A01 T01771021  RH  026%=      5-min Rain = 0
KPPS 141635Z 20012KT 18/M03 A302 RMK A01 T01801026  RH  025%=      5-min Rain = 0
KPPS 141640Z 20012KT 18/M03 A302 RMK A01 T01841029  RH  023%=      5-min Rain = 0
KPPS 141645Z 21011KT 19/M03 A302 RMK A01 T01911031  RH  022%=      5-min Rain = 0
KPPS 141650Z 21011G16KT 20/M04 A302 RMK A01 T02001035  RH  020%=      5-min Rain = 0
KPPS 141655Z 22013KT 20/M05 A302 RMK A01 T02001045  RH  019%=      5-min Rain = 0
KPPS 141700Z 22016G22KT 20/M05 A3019 RMK A01 T02031053  RH  017%=      5-min Rain = 0
KPPS 141705Z 22017G23KT 21/M06 A3019 RMK A01 T02081058  RH  016%=      5-min Rain = 0
KPPS 141710Z 21018KT 21/M06 A3019 RMK A01 T02111063  RH  015%=      5-min Rain = 0
KPPS 141715Z 21018KT 21/M06 A3019 RMK A01 T02131064  RH  015%=      5-min Rain = 0
KPPS 141720Z 22020KT 22/M07 A3019 RMK A01 T02151067  RH  014%=      5-min Rain = 0
KPPS 141725Z 22018G23KT 22/M07 A3018 RMK A01 T02171065  RH  015%=      5-min Rain = 0
KPPS 141730Z 21016G21KT 22/M06 A3018 RMK A01 T02231062  RH  014%=      5-min Rain = 0
KPPS 141735Z 20018G23KT 22/M06 A3018 RMK A01 T02211063  RH  014%=      5-min Rain = 0
KPPS 141740Z 21017G22KT 22/M07 A3018 RMK A01 T02191065  RH  014%=      5-min Rain = 0
KPPS 141745Z 21017G23KT 22/M07 A3018 RMK A01 T02181069  RH  014%=      5-min Rain = 0
KPPS 141750Z 21017KT 22/M07 A3017 RMK A01 T02201069  RH  014%=      5-min Rain = 0
KPPS 141755Z 21016KT 22/M06 A3017 RMK A01 T02221064  RH  014%=      5-min Rain = 0
KPPS 141800Z 21015KT 22/M06 A3017 RMK A01 T02231059  RH  015%=      5-min Rain = 0
KPPS 141805Z 21014KT 23/M06 A3017 RMK A01 T02291058  RH  014%=      5-min Rain = 0
KPPS 141810Z 21015KT 23/M06 A3016 RMK A01 T02321061  RH  014%=      5-min Rain = 0
KPPS 141815Z 22016G23KT 23/M07 A3016 RMK A01 T02341065  RH  013%=      5-min Rain = 0
KPPS 141820Z 22016G22KT 24/M07 A3016 RMK A01 T02361069  RH  013%=      5-min Rain = 0
KPPS 141825Z 22016G24KT 24/M07 A3016 RMK A01 T02361070  RH  012%=      5-min Rain = 0
KPPS 141830Z 22018G25KT 24/M07 A3016 RMK A01 T02371073  RH  012%=      5-min Rain = 0
KPPS 141835Z 23015KT 24/M07 A3015 RMK A01 T02401070  RH  012%=      5-min Rain = 0
KPPS 141840Z 22015G21KT 24/M07 A3015 RMK A01 T02401070  RH  012%=      5-min Rain = 0
KPPS 141845Z 22017KT 24/M07 A3015 RMK A01 T02391073  RH  012%=      5-min Rain = 0
KPPS 141850Z 21016KT 25/M07 A3014 RMK A01 T02461074  RH  011%=      5-min Rain = 0
KPPS 141855Z 22016G22KT 25/M07 A3014 RMK A01 T02481074  RH  011%=      5-min Rain = 0
KPPS 141900Z 23017G23KT 25/M08 A3013 RMK A01 T02501075  RH  011%=      5-min Rain = 0
KPPS 141905Z 22015G21KT 26/M08 A3013 RMK A01 T02551078  RH  010%=      5-min Rain = 0
KPPS 141910Z 21017G26KT 26/M08 A3012 RMK A01 T02581083  RH  010%=      5-min Rain = 0
KPPS 141915Z 21020G29KT 26/M08 A3012 RMK A01 T02571083  RH  010%=      5-min Rain = 0
KPPS 141920Z 22020G28KT 26/M08 A3011 RMK A01 T02591082  RH  010%=      5-min Rain = 0
KPPS 141925Z 22018G24KT 26/M08 A3011 RMK A01 T02621076  RH  010%=      5-min Rain = 0
KPPS 141930Z 22019G26KT 26/M08 A301 RMK A01 T02631076  RH  010%=      5-min Rain = 0
KPPS 141935Z 22021G27KT 26/M07 A301 RMK A01 T02631067  RH  011%=      5-min Rain = 0
KPPS 141940Z 22020G28KT 26/M06 A301 RMK A01 T02621063  RH  011%=      5-min Rain = 0
KPPS 141945Z 22018G26KT 26/M07 A301 RMK A01 T02601066  RH  011%=      5-min Rain = 0
KPPS 141950Z 21021G28KT 26/M05 A3009 RMK A01 T02631054  RH  012%=      5-min Rain = 0
KPPS 141955Z 21023G29KT 26/M05 A3009 RMK A01 T02631054  RH  012%=      5-min Rain = 0
KPPS 142000Z 22022G28KT 26/M06 A3009 RMK A01 T02621057  RH  012%=      5-min Rain = 0
KPPS 142005Z 21023KT 26/M06 A3009 RMK A01 T02601056  RH  012%=      5-min Rain = 0
KPPS 142010Z 21022G28KT 26/M05 A3008 RMK A01 T02641053  RH  012%=      5-min Rain = 0
KPPS 142015Z 22022G29KT 26/M05 A3008 RMK A01 T02621046  RH  013%=      5-min Rain = 0
KPPS 142020Z 22022G30KT 26/M04 A3008 RMK A01 T02641038  RH  014%=      5-min Rain = 0
KPPS 142025Z 21020G28KT 27/M04 A3008 RMK A01 T02661043  RH  013%=      5-min Rain = 0
KPPS 142030Z 22023G32KT 27/M03 A3007 RMK A01 T02651033  RH  014%=      5-min Rain = 0
KPPS 142035Z 22024G33KT 26/M02 A3007 RMK A01 T02601019  RH  016%=      5-min Rain = 0
KPPS 142040Z 22025G35KT 26/M01 A3007 RMK A01 T02631014  RH  016%=      5-min Rain = 0
KPPS 142045Z 21025G30KT 27/M01 A3006 RMK A01 T02651010  RH  017%=      5-min Rain = 0
KPPS 142050Z 22025G35KT 27/M02 A3006 RMK A01 T02671018  RH  015%=      5-min Rain = 0
KPPS 142055Z 22023G31KT 26/M02 A3006 RMK A01 T02631022  RH  015%=      5-min Rain = 0
KPPS 142100Z 21023G30KT 26/M03 A3006 RMK A01 T02621033  RH  014%=      5-min Rain = 0
KPPS 142105Z 21020G26KT 27/M04 A3006 RMK A01 T02651038  RH  013%=      5-min Rain = 0
KPPS 142110Z 21022G29KT 27/M04 A3005 RMK A01 T02701038  RH  013%=      5-min Rain = 0
KPPS 142115Z 21024G35KT 27/M03 A3005 RMK A01 T02661033  RH  014%=      5-min Rain = 0
KPPS 142120Z 22022G30KT 26/M03 A3005 RMK A01 T02621034  RH  014%=      5-min Rain = 0
KPPS 142125Z 21020G27KT 26/M03 A3005 RMK A01 T02611027  RH  015%=      5-min Rain = 0
KPPS 142130Z 23020G28KT 26/M03 A3005 RMK A01 T02621026  RH  015%=      5-min Rain = 0
KPPS 142135Z 22019G27KT 26/M03 A3005 RMK A01 T02631027  RH  015%=      5-min Rain = 0
KPPS 142140Z 22021G33KT 26/M03 A3005 RMK A01 T02581027  RH  015%=      5-min Rain = 0
KPPS 142145Z 22021G27KT 26/M03 A3005 RMK A01 T02561026  RH  015%=      5-min Rain = 0
KPPS 142150Z 22023G29KT 25/M03 A3005 RMK A01 T02541029  RH  015%=      5-min Rain = 0
KPPS 142155Z 22022G28KT 26/M03 A3004 RMK A01 T02601030  RH  015%=      5-min Rain = 0
KPPS 142200Z 23022G28KT 26/M03 A3004 RMK A01 T02581033  RH  015%=      5-min Rain = 0
KPPS 142205Z 23020G27KT 25/M04 A3004 RMK A01 T02541035  RH  015%=      5-min Rain = 0
KPPS 142210Z 23018G25KT 25/M04 A3005 RMK A01 T02531036  RH  015%=      5-min Rain = 0
KPPS 142215Z 23017G24KT 25/M04 A3004 RMK A01 T02541040  RH  014%=      5-min Rain = 0
KPPS 142220Z 23019G24KT 26/M04 A3004 RMK A01 T02581042  RH  014%=      5-min Rain = 0
KPPS 142225Z 23020G27KT 26/M04 A3004 RMK A01 T02581043  RH  013%=      5-min Rain = 0
KPPS 142230Z 22018G25KT 26/M04 A3004 RMK A01 T02601043  RH  013%=      5-min Rain = 0
KPPS 142235Z 23019G27KT 26/M05 A3004 RMK A01 T02571048  RH  013%=      5-min Rain = 0
KPPS 142240Z 23019G24KT 26/M05 A3003 RMK A01 T02551050  RH  013%=      5-min Rain = 0
KPPS 142245Z 22016G22KT 26/M05 A3003 RMK A01 T02561049  RH  013%=      5-min Rain = 0
KPPS 142250Z 22017G22KT 25/M05 A3003 RMK A01 T02531048  RH  013%=      5-min Rain = 0
KPPS 142255Z 22015G23KT 25/M05 A3003 RMK A01 T02481047  RH  014%=      5-min Rain = 0
KPPS 142300Z 22015G20KT 25/M05 A3003 RMK A01 T02481047  RH  014%=      5-min Rain = 0
KPPS 142305Z 23016G23KT 25/M05 A3003 RMK A01 T02481045  RH  014%=      5-min Rain = 0
KPPS 142310Z 23016G21KT 25/M04 A3003 RMK A01 T02451044  RH  014%=      5-min Rain = 0
KPPS 142315Z 23016G21KT 24/M04 A3003 RMK A01 T02441042  RH  015%=      5-min Rain = 0
KPPS 142320Z 23016G23KT 25/M04 A3003 RMK A01 T02471041  RH  015%=      5-min Rain = 0
KPPS 142325Z 24014G20KT 25/M04 A3002 RMK A01 T02481040  RH  015%=      5-min Rain = 0
KPPS 142330Z 24016G22KT 25/M04 A3002 RMK A01 T02451041  RH  015%=      5-min Rain = 0
KPPS 142335Z 24015G20KT 24/M04 A3002 RMK A01 T02411040  RH  015%=      5-min Rain = 0
KPPS 142340Z 24015KT 24/M04 A3002 RMK A01 T02401038  RH  016%=      5-min Rain = 0
KPPS 142345Z 24015KT 24/M04 A3002 RMK A01 T02401038  RH  016%=      5-min Rain = 0
KPPS 142350Z 24014KT 24/M04 A3002 RMK A01 T02371038  RH  016%=      5-min Rain = 0
KPPS 142355Z 24012KT 24/M04 A3002 RMK A01 T02381037  RH  016%=      5-min Rain = 0
KPPS 150000Z 23012KT 24/M04 A3002 RMK A01 T02381037  RH  016%=      5-min Rain = 0
KPPS 150005Z 23011KT 24/M04 A3003 RMK A01 T02361036  RH  016%=      5-min Rain = 0
KPPS 150010Z 24011KT 23/M04 A3003 RMK A01 T02321036  RH  017%=      5-min Rain = 0
KPPS 150015Z 24011KT 23/M03 A3003 RMK A01 T02311034  RH  017%=      5-min Rain = 0
KPPS 150020Z 23011KT 23/M03 A3003 RMK A01 T02301032  RH  017%=      5-min Rain = 0
KPPS 150025Z 23009KT 23/M03 A3003 RMK A01 T02271031  RH  018%=      5-min Rain = 0
KPPS 150030Z 23008KT 22/M03 A3003 RMK A01 T02241030  RH  018%=      5-min Rain = 0
KPPS 150035Z 23007KT 22/M03 A3003 RMK A01 T02191029  RH  019%=      5-min Rain = 0
KPPS 150040Z 22007KT 22/M03 A3003 RMK A01 T02151029  RH  019%=      5-min Rain = 0
KPPS 150045Z 22006KT 21/M03 A3003 RMK A01 T02081029  RH  020%=      5-min Rain = 0
KPPS 150050Z 21005KT 20/M03 A3003 RMK A01 T02031029  RH  021%=      5-min Rain = 0
KPPS 150055Z 20005KT 19/M03 A3003 RMK A01 T01941031  RH  022%=      5-min Rain = 0
KPPS 150100Z 20005KT 20/M03 A3003 RMK A01 T01961030  RH  022%=      5-min Rain = 0
KPPS 150105Z 21006KT 20/M03 A3003 RMK A01 T02031028  RH  021%=      5-min Rain = 0
KPPS 150110Z 21005KT 20/M03 A3003 RMK A01 T02031028  RH  021%=      5-min Rain = 0
KPPS 150115Z 21006KT 20/M03 A3003 RMK A01 T01971027  RH  022%=      5-min Rain = 0
KPPS 150120Z 21006KT 19/M03 A3003 RMK A01 T01941026  RH  023%=      5-min Rain = 0
KPPS 150125Z 22007KT 19/M03 A3002 RMK A01 T01911026  RH  023%=      5-min Rain = 0
KPPS 150130Z 22007KT 19/M03 A3003 RMK A01 T01861025  RH  024%=      5-min Rain = 0
KPPS 150135Z 22008KT 18/M02 A3003 RMK A01 T01841021  RH  025%=      5-min Rain = 0
KPPS 150140Z 23008KT 18/M02 A3003 RMK A01 T01841017  RH  026%=      5-min Rain = 0
KPPS 150145Z 23008KT 19/M01 A3004 RMK A01 T01851014  RH  026%=      5-min Rain = 0
KPPS 150150Z 24009KT 19/M01 A3004 RMK A01 T01851014  RH  026%=      5-min Rain = 0
KPPS 150155Z 24009KT 18/M01 A3004 RMK A01 T01831013  RH  027%=      5-min Rain = 0
KPPS 150200Z 24009KT 18/M01 A3004 RMK A01 T01821011  RH  027%=      5-min Rain = 0
KPPS 150205Z 24009KT 18/M01 A3004 RMK A01 T01811009  RH  028%=      5-min Rain = 0
KPPS 150210Z 24009KT 18/M01 A3004 RMK A01 T01811008  RH  028%=      5-min Rain = 0
KPPS 150215Z 24009KT 18/M01 A3004 RMK A01 T01791007  RH  029%=      5-min Rain = 0
KPPS 150220Z 24008KT 18/M01 A3004 RMK A01 T01781005  RH  029%=      5-min Rain = 0
KPPS 150225Z 24008KT 18/M01 A3004 RMK A01 T01781005  RH  029%=      5-min Rain = 0
KPPS 150230Z 23008KT 18/M00 A3004 RMK A01 T01781003  RH  030%=      5-min Rain = 0
KPPS 150235Z 22008KT 18/M00 A3005 RMK A01 T01811001  RH  030%=      5-min Rain = 0
KPPS 150240Z 21008KT 18/M00 A3005 RMK A01 T01791001  RH  030%=      5-min Rain = 0
KPPS 150245Z 19009KT 17/M00 A3006 RMK A01 T01731004  RH  031%=      5-min Rain = 0
KPPS 150250Z 21009KT 18/M00 A3006 RMK A01 T01751002  RH  030%=      5-min Rain = 0
KPPS 150255Z 21008KT 18/M00 A3006 RMK A01 T01761002  RH  030%=      5-min Rain = 0
KPPS 150300Z 20007KT 18/00 A3005 RMK A01 T017500-0  RH  031%=      5-min Rain = 0
KPPS 150305Z 20008KT 18/00 A3005 RMK A01 T01770002  RH  031%=      5-min Rain = 0
KPPS 150310Z 21007G12KT 18/00 A3005 RMK A01 T01800003  RH  031%=      5-min Rain = 0
KPPS 150315Z 20007KT 18/00 A3005 RMK A01 T01770004  RH  031%=      5-min Rain = 0
KPPS 150320Z 21008KT 18/01 A3005 RMK A01 T01800005  RH  031%=      5-min Rain = 0
KPPS 150325Z 22008KT 18/00 A3005 RMK A01 T01790004  RH  031%=      5-min Rain = 0
KPPS 150330Z 23008KT 18/00 A3005 RMK A01 T01800002  RH  030%=      5-min Rain = 0
KPPS 150335Z 23008KT 18/00 A3005 RMK A01 T01800001  RH  030%=      5-min Rain = 0
KPPS 150340Z 22008KT 18/00 A3006 RMK A01 T01790001  RH  030%=      5-min Rain = 0
KPPS 150345Z 22008KT 18/00 A3006 RMK A01 T01780001  RH  031%=      5-min Rain = 0
KPPS 150350Z 22008KT 18/00 A3006 RMK A01 T01760001  RH  031%=      5-min Rain = 0
KPPS 150355Z 23006KT 18/00 A3006 RMK A01 T01750001  RH  031%=      5-min Rain = 0
KPPS 150400Z 22007KT 17/00 A3006 RMK A01 T01720001  RH  032%=      5-min Rain = 0
KPPS 150405Z 21008KT 17/00 A3006 RMK A01 T01740002  RH  031%=      5-min Rain = 0
KPPS 150410Z 20008KT 18/00 A3006 RMK A01 T01750002  RH  031%=      5-min Rain = 0
KPPS 150415Z 20009KT 18/00 A3006 RMK A01 T01750003  RH  032%=      5-min Rain = 0
KPPS 150420Z 20008KT 17/00 A3006 RMK A01 T01740003  RH  032%=      5-min Rain = 0
KPPS 150425Z 21008KT 17/00 A3006 RMK A01 T01720004  RH  032%=      5-min Rain = 0
KPPS 150430Z 21008KT 17/00 A3006 RMK A01 T01710004  RH  033%=      5-min Rain = 0
KPPS 150435Z 21008KT 17/00 A3006 RMK A01 T01720003  RH  032%=      5-min Rain = 0
KPPS 150440Z 21007KT 17/00 A3006 RMK A01 T01690002  RH  033%=      5-min Rain = 0
KPPS 150445Z 21007KT 17/00 A3006 RMK A01 T01700002  RH  032%=      5-min Rain = 0
KPPS 150450Z 21007KT 17/00 A3006 RMK A01 T01690002  RH  033%=      5-min Rain = 0
KPPS 150455Z 21007KT 17/00 A3006 RMK A01 T01700001  RH  032%=      5-min Rain = 0
KPPS 150500Z 20006KT 17/00 A3006 RMK A01 T016800-0  RH  032%=      5-min Rain = 0
KPPS 150505Z 20007KT 16/00 A3006 RMK A01 T016400-0  RH  033%=      5-min Rain = 0
KPPS 150510Z 21006KT 16/00 A3006 RMK A01 T01620000  RH  034%=      5-min Rain = 0
KPPS 150515Z 21006KT 16/00 A3006 RMK A01 T01610000  RH  034%=      5-min Rain = 0
KPPS 150520Z 21006KT 16/00 A3006 RMK A01 T016100-0  RH  034%=      5-min Rain = 0
KPPS 150525Z 21006KT 16/00 A3006 RMK A01 T016000-0  RH  034%=      5-min Rain = 0
KPPS 150530Z 21007KT 16/M00 A3006 RMK A01 T01591001  RH  034%=      5-min Rain = 0
KPPS 150535Z 22007KT 16/M00 A3006 RMK A01 T01561002  RH  034%=      5-min Rain = 0
KPPS 150540Z 22006KT 15/M00 A3006 RMK A01 T01521003  RH  035%=      5-min Rain = 0
KPPS 150545Z 22007KT 15/M00 A3006 RMK A01 T01521003  RH  035%=      5-min Rain = 0
KPPS 150550Z 23008KT 15/M00 A3005 RMK A01 T01511003  RH  035%=      5-min Rain = 0
KPPS 150555Z 23007KT 15/M00 A3005 RMK A01 T01521004  RH  035%=      5-min Rain = 0

Page generated in 0.0266 seconds.